Time;durP1;ratioP1;P1;durP2;ratioP2;P2;SDS_P1;SDS_P2;PMS_P1;PMS_P2;Temp;Humidity;BMP_temperature;BMP_pressure;BME280_temperature;BME280_humidity;BME280_pressure;Samples;Min_cycle;Max_cycle;Signal;HPM_P1;HPM_P2
2024/03/16 00:01:35;;;;;;;45.08;22.83;;;8.50;99.90;;;;;;4950165;28;20569;-74
2024/03/16 00:04:04;;;;;;;47.03;22.80;;;8.40;99.90;;;;;;4966998;28;20070;-73
2024/03/16 00:06:33;;;;;;;47.58;23.20;;;8.40;99.90;;;;;;4992404;28;20066;-74
2024/03/16 00:09:02;;;;;;;43.80;20.80;;;8.40;99.90;;;;;;4965791;28;20137;-74
2024/03/16 00:11:31;;;;;;;42.42;20.52;;;8.30;99.90;;;;;;4951199;28;20050;-73
2024/03/16 00:14:00;;;;;;;49.92;22.92;;;8.30;99.90;;;;;;4972665;28;20497;-73
2024/03/16 00:16:30;;;;;;;45.65;21.92;;;8.30;99.90;;;;;;4967992;28;20066;-75
2024/03/16 00:18:59;;;;;;;49.50;23.30;;;8.30;99.90;;;;;;4969281;28;20042;-73
2024/03/16 00:21:27;;;;;;;47.60;21.55;;;8.30;99.90;;;;;;4981008;28;20050;-73
2024/03/16 00:23:56;;;;;;;47.38;21.33;;;8.20;99.90;;;;;;4949413;28;20113;-73
2024/03/16 00:26:25;;;;;;;45.45;20.63;;;8.20;99.90;;;;;;4964134;28;20038;-73
2024/03/16 00:28:53;;;;;;;43.70;20.45;;;8.20;99.90;;;;;;4968416;28;20045;-74
2024/03/16 00:31:22;;;;;;;43.92;19.77;;;8.20;99.90;;;;;;4986244;28;20049;-74
2024/03/16 00:33:51;;;;;;;43.15;18.30;;;8.20;99.90;;;;;;4998294;28;20038;-73
2024/03/16 00:36:19;;;;;;;41.33;20.02;;;8.20;99.90;;;;;;4968543;28;20050;-75
2024/03/16 00:38:49;;;;;;;39.65;18.90;;;8.10;99.90;;;;;;4965005;28;20173;-73
2024/03/16 00:41:19;;;;;;;42.70;18.98;;;8.10;99.90;;;;;;4969361;28;20047;-73
2024/03/16 00:43:48;;;;;;;36.22;17.52;;;8.10;99.90;;;;;;4953042;28;20042;-73
2024/03/16 00:46:16;;;;;;;41.20;19.30;;;8.10;99.90;;;;;;4969390;28;20054;-73
2024/03/16 00:48:45;;;;;;;39.03;17.65;;;8.10;99.90;;;;;;4965754;28;20497;-73
2024/03/16 00:51:14;;;;;;;42.20;19.75;;;8.10;99.90;;;;;;4962739;28;20054;-73
2024/03/16 00:53:43;;;;;;;36.20;17.55;;;8.10;99.90;;;;;;4965032;28;20062;-74
2024/03/16 00:56:11;;;;;;;39.47;18.20;;;8.10;99.90;;;;;;4953831;28;20540;-74
2024/03/16 00:58:40;;;;;;;37.35;17.83;;;8.10;99.90;;;;;;4951961;28;20046;-75
2024/03/16 01:01:09;;;;;;;39.40;18.45;;;8.10;99.90;;;;;;4968069;28;20122;-74
2024/03/16 01:03:38;;;;;;;39.13;17.02;;;8.00;99.90;;;;;;4954268;28;20051;-73
2024/03/16 01:06:06;;;;;;;44.08;19.15;;;8.00;99.90;;;;;;4980902;28;20049;-74
2024/03/16 01:08:35;;;;;;;38.83;18.55;;;8.10;99.90;;;;;;4956314;28;20058;-74
2024/03/16 01:11:05;;;;;;;35.13;17.08;;;8.10;99.90;;;;;;4971980;28;20501;-74
2024/03/16 01:13:35;;;;;;;38.50;18.35;;;8.00;99.90;;;;;;4971259;28;20130;-73
2024/03/16 01:16:03;;;;;;;37.97;18.10;;;8.00;99.90;;;;;;4954662;28;20046;-74
2024/03/16 01:18:33;;;;;;;37.53;18.42;;;7.90;99.90;;;;;;4968209;28;20049;-75
2024/03/16 01:21:02;;;;;;;40.75;19.35;;;8.00;99.90;;;;;;4952991;28;20054;-74
2024/03/16 01:23:31;;;;;;;37.58;18.63;;;8.00;99.90;;;;;;4980942;28;20158;-74
2024/03/16 01:26:00;;;;;;;39.72;18.63;;;8.00;99.90;;;;;;4995377;28;20077;-74
2024/03/16 01:28:28;;;;;;;39.20;18.13;;;8.00;99.90;;;;;;4968247;28;20040;-74
2024/03/16 01:30:57;;;;;;;38.63;18.33;;;8.00;99.90;;;;;;4966086;28;20046;-74
2024/03/16 01:33:26;;;;;;;41.60;19.25;;;7.90;99.90;;;;;;4967510;28;20042;-74
2024/03/16 01:35:54;;;;;;;39.90;18.92;;;8.00;99.90;;;;;;4967362;28;20108;-73
2024/03/16 01:38:23;;;;;;;36.08;17.80;;;8.00;99.90;;;;;;4964496;28;20409;-74
2024/03/16 01:40:51;;;;;;;42.75;19.85;;;8.00;99.90;;;;;;4952826;28;20453;-73
2024/03/16 01:43:20;;;;;;;42.13;18.67;;;8.00;99.90;;;;;;4971253;28;20046;-73
2024/03/16 01:45:48;;;;;;;40.60;19.83;;;8.00;99.90;;;;;;4982604;28;20157;-74
2024/03/16 01:48:17;;;;;;;39.70;18.27;;;8.00;99.90;;;;;;4967026;28;20531;-74
2024/03/16 01:50:46;;;;;;;37.33;18.05;;;8.00;99.90;;;;;;4953447;28;20049;-74
2024/03/16 01:53:14;;;;;;;36.17;17.63;;;8.00;99.90;;;;;;4953883;28;20046;-73
2024/03/16 01:55:43;;;;;;;35.60;17.50;;;8.00;99.90;;;;;;4964766;28;20565;-74
2024/03/16 01:58:11;;;;;;;34.88;16.90;;;8.00;99.90;;;;;;4977437;28;20081;-73
2024/03/16 02:00:45;;;;;;;34.60;17.25;;;8.00;99.90;;;;;;4967467;28;20112;-74
2024/03/16 02:03:14;;;;;;;34.03;17.13;;;8.00;99.90;;;;;;4957891;28;20051;-74
2024/03/16 02:05:42;;;;;;;33.83;15.77;;;8.00;99.90;;;;;;4954567;28;20482;-74
2024/03/16 02:08:11;;;;;;;35.72;16.73;;;8.00;99.90;;;;;;4967207;28;20054;-73
2024/03/16 02:10:40;;;;;;;31.75;15.05;;;8.00;99.90;;;;;;4963128;28;20043;-75
2024/03/16 02:13:09;;;;;;;35.42;17.13;;;8.00;99.90;;;;;;4980365;28;20461;-75
2024/03/16 02:15:38;;;;;;;33.70;16.98;;;8.00;99.90;;;;;;4952614;28;20520;-73
2024/03/16 02:18:09;;;;;;;34.25;16.30;;;8.00;99.90;;;;;;4953543;28;20057;-74
2024/03/16 02:20:38;;;;;;;35.15;16.88;;;8.00;99.90;;;;;;4952925;28;20046;-74
2024/03/16 02:23:06;;;;;;;33.70;14.85;;;8.00;99.90;;;;;;4952100;28;20077;-73
2024/03/16 02:25:35;;;;;;;34.55;16.15;;;8.10;99.90;;;;;;4966787;28;20051;-74
2024/03/16 02:28:04;;;;;;;34.28;15.82;;;8.10;99.90;;;;;;4974928;28;20072;-74
2024/03/16 02:30:34;;;;;;;32.53;16.20;;;8.00;99.90;;;;;;4981180;28;20097;-74
2024/03/16 02:33:05;;;;;;;36.92;16.77;;;8.10;99.90;;;;;;4966196;28;20401;-74
2024/03/16 02:35:35;;;;;;;35.28;16.25;;;8.00;99.90;;;;;;4968530;28;20146;-74
2024/03/16 02:38:03;;;;;;;32.97;15.43;;;8.10;99.90;;;;;;4965127;28;20052;-74
2024/03/16 02:40:32;;;;;;;34.95;17.00;;;8.10;99.90;;;;;;4996328;28;20062;-74
2024/03/16 02:43:00;;;;;;;32.55;15.18;;;8.10;99.90;;;;;;4950808;28;20128;-73
2024/03/16 02:45:29;;;;;;;37.85;17.95;;;8.10;99.90;;;;;;4983458;28;20057;-73
2024/03/16 02:47:58;;;;;;;31.52;15.23;;;8.10;99.90;;;;;;4982971;28;20120;-73
2024/03/16 02:50:27;;;;;;;34.17;16.35;;;8.10;99.90;;;;;;4981512;28;20125;-74
2024/03/16 02:52:56;;;;;;;30.38;15.00;;;8.10;99.90;;;;;;4980657;28;20057;-73
2024/03/16 02:55:25;;;;;;;37.78;16.65;;;8.10;99.90;;;;;;4964781;28;20315;-74
2024/03/16 02:57:54;;;;;;;34.78;16.27;;;8.10;99.90;;;;;;4971370;28;20047;-74
2024/03/16 03:00:22;;;;;;;33.83;15.88;;;8.10;99.90;;;;;;4960451;28;20042;-74
2024/03/16 03:02:51;;;;;;;32.70;15.70;;;8.10;99.90;;;;;;4952279;28;20383;-74
2024/03/16 03:05:22;;;;;;;33.60;16.27;;;8.10;99.90;;;;;;4978814;28;20145;-74
2024/03/16 03:07:52;;;;;;;35.15;15.75;;;8.10;99.90;;;;;;4942665;28;20074;-74
2024/03/16 03:10:21;;;;;;;33.33;16.25;;;8.10;99.90;;;;;;4972458;28;20034;-76
2024/03/16 03:12:50;;;;;;;32.10;15.77;;;8.10;99.90;;;;;;4959600;28;20057;-74
2024/03/16 03:15:19;;;;;;;32.80;16.02;;;8.10;99.90;;;;;;4978000;28;20101;-73
2024/03/16 03:17:49;;;;;;;30.55;14.15;;;8.10;99.90;;;;;;4963945;28;20054;-75
2024/03/16 03:20:20;;;;;;;28.48;14.10;;;8.10;99.90;;;;;;4971078;28;20039;-73
2024/03/16 03:22:50;;;;;;;28.15;13.95;;;8.20;99.90;;;;;;4968096;28;20053;-74
2024/03/16 03:25:21;;;;;;;31.05;14.38;;;8.20;99.90;;;;;;4964410;28;20042;-73
2024/03/16 03:27:50;;;;;;;27.33;14.05;;;8.20;99.90;;;;;;4963100;28;20038;-73
2024/03/16 03:30:19;;;;;;;30.50;14.43;;;8.20;99.90;;;;;;4949317;28;20080;-74
2024/03/16 03:32:47;;;;;;;31.67;15.18;;;8.20;99.90;;;;;;4964203;28;20054;-74
2024/03/16 03:35:16;;;;;;;34.28;14.13;;;8.20;99.90;;;;;;4965232;28;20109;-74
2024/03/16 03:37:44;;;;;;;29.70;14.05;;;8.20;99.90;;;;;;4980087;28;20821;-75
2024/03/16 03:40:13;;;;;;;30.02;14.43;;;8.20;99.90;;;;;;4959463;28;20079;-73
2024/03/16 03:42:47;;;;;;;31.13;13.90;;;8.20;99.90;;;;;;4962115;28;20051;-73
2024/03/16 03:45:27;;;;;;;28.80;13.40;;;8.20;99.90;;;;;;4953959;28;20046;-74
2024/03/16 03:48:02;;;;;;;32.60;14.60;;;8.20;99.90;;;;;;4966074;28;20050;-74
2024/03/16 03:50:32;;;;;;;26.63;13.05;;;8.20;99.90;;;;;;4964464;28;20038;-74
2024/03/16 03:53:02;;;;;;;31.42;14.15;;;8.20;99.90;;;;;;4966313;28;20070;-75
2024/03/16 03:55:31;;;;;;;32.38;14.57;;;8.30;99.90;;;;;;4973198;28;20047;-75
2024/03/16 03:58:02;;;;;;;31.15;14.52;;;8.30;99.90;;;;;;4958370;28;20109;-79
2024/03/16 04:00:31;;;;;;;29.80;12.95;;;8.30;99.90;;;;;;4992466;28;20061;-80
2024/03/16 04:02:59;;;;;;;31.05;15.00;;;8.30;99.90;;;;;;4981068;28;20051;-79
2024/03/16 04:05:28;;;;;;;27.88;11.90;;;8.30;99.90;;;;;;4967187;28;20108;-79
2024/03/16 04:07:56;;;;;;;30.27;14.05;;;8.20;99.90;;;;;;4985538;28;20080;-79
2024/03/16 04:10:25;;;;;;;30.00;14.45;;;8.20;99.90;;;;;;4992676;28;20073;-79
2024/03/16 04:12:54;;;;;;;30.55;13.95;;;8.20;99.90;;;;;;4979116;28;20185;-79
2024/03/16 04:15:22;;;;;;;30.70;14.27;;;8.20;99.90;;;;;;4977409;28;20294;-79
2024/03/16 04:17:51;;;;;;;30.73;14.32;;;8.20;99.90;;;;;;4983088;28;20051;-79
2024/03/16 04:20:20;;;;;;;28.90;13.40;;;8.20;99.90;;;;;;4977655;28;20049;-79
2024/03/16 04:22:48;;;;;;;29.52;13.85;;;8.20;99.90;;;;;;4980582;28;20065;-79
2024/03/16 04:25:17;;;;;;;28.58;13.82;;;8.20;99.90;;;;;;4958982;28;20046;-79
2024/03/16 04:27:45;;;;;;;30.63;14.05;;;8.20;99.90;;;;;;4962711;28;20045;-79
2024/03/16 04:30:14;;;;;;;26.60;13.30;;;8.20;99.90;;;;;;4960916;28;20510;-80
2024/03/16 04:32:43;;;;;;;28.27;13.32;;;8.20;99.90;;;;;;4968734;28;20073;-79
2024/03/16 04:35:12;;;;;;;25.25;12.98;;;8.20;99.90;;;;;;4967430;28;20050;-79
2024/03/16 04:37:40;;;;;;;29.38;14.90;;;8.20;99.90;;;;;;4981977;28;20070;-80
2024/03/16 04:40:10;;;;;;;30.38;13.90;;;8.20;99.90;;;;;;4980235;28;20493;-79
2024/03/16 04:42:40;;;;;;;28.58;13.00;;;8.30;99.90;;;;;;4981634;28;20581;-79
2024/03/16 04:45:09;;;;;;;28.15;13.23;;;8.20;99.90;;;;;;4998555;28;20051;-79
2024/03/16 04:47:38;;;;;;;27.23;12.85;;;8.20;99.90;;;;;;4981088;28;20058;-78
2024/03/16 04:50:07;;;;;;;26.52;13.00;;;8.40;99.90;;;;;;4996066;28;20050;-76
2024/03/16 04:52:36;;;;;;;28.48;13.68;;;8.30;99.90;;;;;;4977755;28;20134;-79
2024/03/16 04:55:08;;;;;;;28.58;13.68;;;8.30;99.90;;;;;;4991801;28;20460;-80
2024/03/16 04:57:37;;;;;;;30.05;13.38;;;8.40;99.90;;;;;;4969009;28;20082;-78
2024/03/16 05:00:08;;;;;;;25.45;12.93;;;8.40;99.90;;;;;;4978220;28;20046;-77
2024/03/16 05:02:37;;;;;;;32.17;15.20;;;8.30;99.90;;;;;;4983913;28;20050;-77
2024/03/16 05:05:06;;;;;;;29.17;14.23;;;8.40;99.90;;;;;;4979735;28;20067;-79
2024/03/16 05:07:35;;;;;;;28.00;13.10;;;8.40;99.90;;;;;;4987930;28;20054;-73
2024/03/16 05:10:04;;;;;;;28.42;13.52;;;8.40;99.90;;;;;;4955726;28;20503;-74
2024/03/16 05:12:33;;;;;;;29.42;13.70;;;8.40;99.90;;;;;;4950557;28;20529;-75
2024/03/16 05:15:02;;;;;;;27.13;13.02;;;8.40;99.90;;;;;;4967355;28;20613;-75
2024/03/16 05:17:31;;;;;;;30.80;14.07;;;8.40;99.90;;;;;;4967146;28;20042;-75
2024/03/16 05:20:00;;;;;;;29.10;13.40;;;8.40;99.90;;;;;;4985363;28;20051;-74
2024/03/16 05:22:29;;;;;;;29.17;13.02;;;8.40;99.90;;;;;;4965248;28;20533;-74
2024/03/16 05:24:58;;;;;;;26.77;12.93;;;8.50;99.90;;;;;;4969724;28;20100;-74
2024/03/16 05:27:27;;;;;;;29.27;13.25;;;8.50;99.90;;;;;;4966635;28;20522;-74
2024/03/16 05:29:56;;;;;;;31.13;13.88;;;8.50;99.90;;;;;;4967254;28;20043;-74
2024/03/16 05:32:24;;;;;;;27.52;13.20;;;8.50;99.90;;;;;;4964754;28;20393;-74
2024/03/16 05:34:53;;;;;;;29.48;12.45;;;8.50;99.90;;;;;;4964951;28;20058;-74
2024/03/16 05:37:22;;;;;;;26.63;13.13;;;8.50;99.90;;;;;;4953977;28;21394;-75
2024/03/16 05:39:51;;;;;;;25.15;13.05;;;8.50;99.90;;;;;;4966427;28;20066;-74
2024/03/16 05:42:20;;;;;;;29.88;13.80;;;8.50;99.90;;;;;;4952658;28;20045;-75
2024/03/16 05:44:48;;;;;;;30.95;13.35;;;8.50;99.90;;;;;;4966906;28;20173;-74
2024/03/16 05:47:21;;;;;;;29.80;14.02;;;8.50;99.90;;;;;;4986107;28;20061;-74
2024/03/16 05:49:50;;;;;;;31.90;14.35;;;8.60;99.90;;;;;;4952901;28;20076;-74
2024/03/16 05:52:18;;;;;;;26.48;12.82;;;8.60;99.90;;;;;;4954326;28;20043;-76
2024/03/16 05:54:47;;;;;;;27.25;13.40;;;8.60;99.90;;;;;;4995977;28;20046;-75
2024/03/16 05:57:16;;;;;;;28.77;13.80;;;8.60;99.90;;;;;;4969325;28;20092;-74
2024/03/16 05:59:45;;;;;;;26.33;13.27;;;8.60;99.90;;;;;;4982850;28;20093;-75
2024/03/16 06:02:13;;;;;;;28.75;13.80;;;8.60;99.90;;;;;;4965718;28;20405;-74
2024/03/16 06:04:45;;;;;;;27.35;13.77;;;8.60;99.90;;;;;;4965879;28;20092;-74
2024/03/16 06:07:15;;;;;;;27.08;12.65;;;8.70;99.90;;;;;;4956873;28;20089;-75
2024/03/16 06:09:43;;;;;;;24.55;12.50;;;8.70;99.90;;;;;;4959844;28;20077;-75
2024/03/16 06:12:12;;;;;;;25.27;12.43;;;8.70;99.90;;;;;;4982112;28;20052;-76
2024/03/16 06:14:41;;;;;;;25.77;13.15;;;8.70;99.90;;;;;;4984379;28;20050;-75
2024/03/16 06:17:11;;;;;;;28.15;13.05;;;8.70;99.90;;;;;;4966502;28;20692;-76
2024/03/16 06:19:39;;;;;;;25.52;12.23;;;8.80;99.90;;;;;;4984949;28;20061;-74
2024/03/16 06:22:08;;;;;;;29.77;13.00;;;8.80;99.90;;;;;;4954503;28;20038;-77
2024/03/16 06:24:37;;;;;;;27.65;12.25;;;8.80;99.90;;;;;;4962450;28;20089;-76
2024/03/16 06:27:06;;;;;;;25.33;13.20;;;8.90;99.90;;;;;;4966844;28;21124;-76
2024/03/16 06:29:34;;;;;;;25.52;12.57;;;8.90;99.90;;;;;;4980143;28;20057;-78
2024/03/16 06:32:05;;;;;;;27.70;12.30;;;8.90;99.90;;;;;;4953726;28;20201;-77
2024/03/16 06:34:34;;;;;;;24.98;12.05;;;8.90;99.90;;;;;;4955269;28;20405;-76
2024/03/16 06:37:03;;;;;;;27.17;12.10;;;8.90;99.90;;;;;;4951865;28;20536;-75
2024/03/16 06:39:32;;;;;;;25.00;11.52;;;8.90;99.90;;;;;;4998859;28;20379;-77
2024/03/16 06:42:00;;;;;;;24.75;11.93;;;8.80;99.90;;;;;;4964511;28;20074;-78
2024/03/16 06:44:30;;;;;;;28.63;13.60;;;8.80;99.90;;;;;;4953313;28;20106;-77
2024/03/16 06:46:58;;;;;;;27.60;12.65;;;8.90;99.90;;;;;;4968637;28;20061;-79
2024/03/16 06:49:27;;;;;;;26.42;12.82;;;8.90;99.90;;;;;;4968432;28;20043;-78
2024/03/16 06:51:55;;;;;;;29.42;13.65;;;8.80;99.90;;;;;;4970708;28;20528;-78
2024/03/16 06:54:24;;;;;;;29.15;14.13;;;8.80;99.90;;;;;;4985278;28;20085;-78
2024/03/16 06:56:52;;;;;;;30.13;13.90;;;8.90;99.90;;;;;;4984911;28;20071;-78
2024/03/16 06:59:21;;;;;;;26.67;12.18;;;9.00;99.90;;;;;;4952352;28;20173;-78
2024/03/16 07:01:50;;;;;;;25.17;12.70;;;8.90;99.90;;;;;;4966913;28;20054;-79
2024/03/16 07:04:20;;;;;;;25.90;11.60;;;9.00;99.90;;;;;;4980784;28;20074;-79
2024/03/16 07:06:48;;;;;;;26.40;13.88;;;9.00;99.90;;;;;;4959711;28;20062;-78
2024/03/16 07:09:18;;;;;;;21.17;10.93;;;9.00;99.90;;;;;;4967364;28;20521;-78
2024/03/16 07:11:47;;;;;;;25.58;11.55;;;9.00;99.90;;;;;;4969003;28;20060;-78
2024/03/16 07:14:17;;;;;;;24.27;11.50;;;9.00;99.90;;;;;;4961524;28;20674;-78
2024/03/16 07:16:45;;;;;;;23.55;11.60;;;9.00;99.90;;;;;;4947208;28;20042;-79
2024/03/16 07:19:14;;;;;;;24.25;12.30;;;9.00;99.90;;;;;;4960069;28;20066;-78
2024/03/16 07:21:42;;;;;;;28.92;12.45;;;8.90;99.90;;;;;;4966415;28;20058;-79
2024/03/16 07:24:11;;;;;;;27.63;12.90;;;9.00;99.90;;;;;;4965111;28;20054;-78
2024/03/16 07:26:40;;;;;;;24.75;12.40;;;9.00;99.90;;;;;;4968573;28;20046;-78
2024/03/16 07:29:09;;;;;;;26.17;11.57;;;9.10;99.90;;;;;;4959704;28;20125;-79
2024/03/16 07:31:37;;;;;;;27.00;13.15;;;9.10;99.90;;;;;;4972812;28;20054;-79
2024/03/16 07:34:06;;;;;;;22.25;11.90;;;9.10;99.90;;;;;;4956144;28;20122;-79
2024/03/16 07:36:34;;;;;;;24.30;12.88;;;9.20;99.90;;;;;;4986154;28;20078;-79
2024/03/16 07:39:08;;;;;;;26.38;13.13;;;9.20;99.90;;;;;;4984368;28;20965;-79
2024/03/16 07:41:37;;;;;;;25.38;12.88;;;9.30;99.90;;;;;;4973091;28;20054;-79
2024/03/16 07:44:05;;;;;;;24.63;12.40;;;9.20;99.90;;;;;;4973798;28;20038;-79
2024/03/16 07:46:34;;;;;;;23.55;12.10;;;9.30;99.90;;;;;;4984834;28;20157;-79
2024/03/16 07:49:03;;;;;;;25.73;11.93;;;9.30;99.90;;;;;;4999504;28;20116;-79
2024/03/16 07:51:37;;;;;;;25.63;12.13;;;9.30;99.90;;;;;;4988624;28;20420;-80
2024/03/16 07:54:11;;;;;;;25.55;12.55;;;9.50;99.90;;;;;;4992238;28;20587;-79
2024/03/16 07:56:39;;;;;;;24.45;11.98;;;9.50;99.90;;;;;;4975295;28;20559;-79
2024/03/16 07:59:09;;;;;;;25.17;13.07;;;9.60;99.90;;;;;;4973082;28;20062;-80
2024/03/16 08:01:38;;;;;;;28.52;12.77;;;9.60;99.90;;;;;;4974390;28;20047;-79
2024/03/16 08:04:06;;;;;;;24.70;11.88;;;9.60;99.90;;;;;;4985835;28;20123;-79
2024/03/16 08:06:36;;;;;;;24.27;11.35;;;9.60;99.90;;;;;;4958331;28;20054;-79
2024/03/16 08:09:05;;;;;;;25.10;12.60;;;9.60;99.90;;;;;;4975022;28;20203;-79
2024/03/16 08:11:33;;;;;;;25.38;13.25;;;9.60;99.90;;;;;;4969360;28;20101;-79
2024/03/16 08:14:05;;;;;;;25.70;12.63;;;9.60;99.90;;;;;;4958435;28;20058;-80
2024/03/16 08:16:33;;;;;;;26.13;12.32;;;10.10;99.90;;;;;;4950633;28;20074;-79
2024/03/16 08:19:02;;;;;;;27.50;12.63;;;9.70;99.90;;;;;;4954317;28;20449;-79
2024/03/16 08:21:32;;;;;;;21.70;11.10;;;9.80;99.90;;;;;;4958589;28;20522;-80
2024/03/16 08:24:01;;;;;;;23.42;11.85;;;9.90;99.90;;;;;;4976040;28;20050;-79
2024/03/16 08:26:30;;;;;;;25.10;12.10;;;9.90;99.90;;;;;;4956909;28;20042;-79
2024/03/16 08:28:59;;;;;;;22.40;11.75;;;10.00;99.90;;;;;;4970457;28;20047;-80
2024/03/16 08:31:27;;;;;;;25.20;11.90;;;10.00;99.90;;;;;;4965658;28;20062;-81
2024/03/16 08:33:56;;;;;;;24.75;12.05;;;10.10;99.90;;;;;;4979257;28;20034;-80
2024/03/16 08:36:25;;;;;;;24.95;12.55;;;10.10;99.90;;;;;;4963398;28;20486;-80
2024/03/16 08:38:54;;;;;;;24.95;12.50;;;10.00;99.90;;;;;;4960435;28;20513;-78
2024/03/16 08:41:22;;;;;;;26.10;12.52;;;10.30;99.90;;;;;;4955833;28;20043;-78
2024/03/16 08:43:51;;;;;;;24.85;12.98;;;10.40;99.90;;;;;;4957746;28;20047;-78
2024/03/16 08:46:19;;;;;;;26.25;12.98;;;10.50;99.90;;;;;;4966358;28;20565;-77
2024/03/16 08:48:51;;;;;;;24.75;12.00;;;10.60;99.90;;;;;;4944031;28;20127;-76
2024/03/16 08:51:21;;;;;;;24.00;12.30;;;10.70;99.90;;;;;;4952465;28;20038;-78
2024/03/16 08:53:49;;;;;;;29.50;13.15;;;10.80;99.90;;;;;;4956329;28;20046;-78
2024/03/16 08:56:18;;;;;;;27.92;13.48;;;10.80;99.90;;;;;;4969337;28;20064;-77
2024/03/16 08:58:49;;;;;;;25.40;12.80;;;10.80;99.90;;;;;;4969840;28;20133;-77
2024/03/16 09:01:17;;;;;;;23.92;12.15;;;10.80;99.90;;;;;;4954815;28;20050;-78
2024/03/16 09:03:46;;;;;;;25.60;13.77;;;10.90;99.90;;;;;;4954861;28;20058;-77
2024/03/16 09:06:15;;;;;;;24.10;12.38;;;11.00;99.90;;;;;;4955772;28;20047;-78
2024/03/16 09:08:43;;;;;;;22.45;12.32;;;11.00;99.90;;;;;;4964968;28;20050;-77
2024/03/16 09:11:12;;;;;;;22.63;11.95;;;11.10;99.90;;;;;;4956186;28;20061;-77
2024/03/16 09:13:40;;;;;;;25.42;11.77;;;11.20;99.90;;;;;;4957638;28;20642;-78
2024/03/16 09:16:09;;;;;;;24.45;12.05;;;11.30;99.90;;;;;;4972504;28;20093;-77
2024/03/16 09:18:37;;;;;;;28.52;12.50;;;11.50;99.90;;;;;;4965335;28;20090;-76
2024/03/16 09:21:06;;;;;;;23.42;12.38;;;11.60;99.90;;;;;;4972194;28;20050;-77
2024/03/16 09:23:35;;;;;;;27.73;13.23;;;11.70;99.90;;;;;;4971919;28;20165;-77
2024/03/16 09:26:04;;;;;;;23.95;12.52;;;11.70;99.90;;;;;;4968446;28;20061;-77
2024/03/16 09:28:34;;;;;;;24.67;13.48;;;11.80;99.90;;;;;;4965796;28;20129;-77
2024/03/16 09:31:05;;;;;;;25.15;12.55;;;11.80;99.90;;;;;;4965163;28;20068;-77
2024/03/16 09:33:34;;;;;;;25.98;12.40;;;11.70;99.90;;;;;;4969767;28;20124;-76
2024/03/16 09:36:03;;;;;;;22.73;12.13;;;11.80;99.90;;;;;;4956498;28;20397;-76
2024/03/16 09:38:34;;;;;;;22.08;11.93;;;11.90;99.90;;;;;;4964967;28;20042;-76
2024/03/16 09:41:04;;;;;;;25.00;12.82;;;12.00;99.90;;;;;;4984157;28;20532;-77
2024/03/16 09:43:34;;;;;;;23.42;12.30;;;12.10;99.90;;;;;;4984017;28;20038;-76
2024/03/16 09:46:01;;;;;;;25.17;12.30;;;12.10;99.90;;;;;;4969457;28;20054;-77
2024/03/16 09:48:29;;;;;;;22.70;11.93;;;12.30;99.90;;;;;;4952305;28;20138;-77
2024/03/16 09:50:56;;;;;;;25.20;12.70;;;12.30;99.90;;;;;;4939853;28;20133;-77
2024/03/16 09:53:28;;;;;;;21.83;11.82;;;12.40;99.90;;;;;;4941243;28;20031;-77
2024/03/16 09:55:57;;;;;;;22.30;12.10;;;12.40;99.90;;;;;;4956617;28;20047;-76
2024/03/16 09:58:24;;;;;;;23.80;12.00;;;12.30;99.90;;;;;;4978919;28;20503;-77
2024/03/16 10:00:53;;;;;;;22.23;11.70;;;12.30;99.90;;;;;;4950295;28;20046;-77
2024/03/16 10:03:21;;;;;;;22.35;13.07;;;12.30;99.90;;;;;;4976953;28;20054;-77
2024/03/16 10:05:48;;;;;;;26.85;14.20;;;12.30;99.90;;;;;;4961593;28;20077;-76
2024/03/16 10:08:19;;;;;;;30.88;14.75;;;12.20;99.90;;;;;;4947716;28;20058;-77
2024/03/16 10:10:46;;;;;;;22.83;12.75;;;12.20;99.90;;;;;;4971466;28;20100;-75
2024/03/16 10:13:14;;;;;;;27.60;13.50;;;12.30;99.90;;;;;;4951802;28;20258;-76
2024/03/16 10:15:43;;;;;;;23.27;12.43;;;12.30;99.90;;;;;;4936291;28;20046;-78
2024/03/16 10:18:14;;;;;;;25.20;13.30;;;12.50;99.90;;;;;;4967200;28;20042;-77
2024/03/16 10:20:43;;;;;;;24.98;13.23;;;12.60;99.90;;;;;;4953819;28;20062;-78
2024/03/16 10:23:15;;;;;;;21.90;12.70;;;12.60;99.90;;;;;;4954008;28;20538;-78
2024/03/16 10:25:45;;;;;;;24.70;11.98;;;12.70;99.90;;;;;;4953130;28;20058;-77
2024/03/16 10:28:16;;;;;;;22.80;12.35;;;12.90;99.90;;;;;;4951426;28;20409;-77
2024/03/16 10:30:44;;;;;;;22.08;12.80;;;12.90;99.90;;;;;;4956660;28;20516;-76
2024/03/16 10:33:12;;;;;;;24.30;13.75;;;12.80;99.90;;;;;;4935993;28;20043;-77
2024/03/16 10:35:40;;;;;;;23.35;12.63;;;12.80;99.90;;;;;;4932588;28;20046;-77
2024/03/16 10:38:09;;;;;;;20.58;12.30;;;12.80;99.90;;;;;;4955210;28;20039;-77
2024/03/16 10:40:38;;;;;;;25.30;13.38;;;12.90;99.90;;;;;;4958840;28;20042;-76
2024/03/16 10:43:08;;;;;;;22.67;12.82;;;13.00;99.90;;;;;;4985423;28;20050;-77
2024/03/16 10:45:35;;;;;;;24.08;12.68;;;13.20;99.90;;;;;;4967650;28;20071;-76
2024/03/16 10:48:03;;;;;;;24.13;13.13;;;13.20;99.90;;;;;;4952493;28;20122;-77
2024/03/16 10:50:31;;;;;;;25.20;12.65;;;13.30;99.90;;;;;;4958738;28;20133;-76
2024/03/16 10:53:00;;;;;;;28.77;13.32;;;13.40;99.90;;;;;;4950881;28;20501;-77
2024/03/16 10:55:29;;;;;;;22.63;12.23;;;13.40;99.90;;;;;;4951076;28;20038;-77
2024/03/16 10:57:57;;;;;;;23.90;12.07;;;13.40;99.90;;;;;;4954493;28;20066;-77
2024/03/16 11:00:34;;;;;;;24.25;12.98;;;13.40;99.90;;;;;;4953821;28;20549;-77
2024/03/16 11:03:07;;;;;;;23.52;13.25;;;13.30;99.90;;;;;;4953151;28;20046;-77
2024/03/16 11:05:35;;;;;;;;;;;13.20;99.90;;;;;;4972802;28;20045;-75
2024/03/16 11:08:23;;;;;;;28.38;14.65;;;13.40;99.90;;;;;;4967558;28;20020;-75
2024/03/16 11:10:52;;;;;;;23.50;13.13;;;13.30;99.90;;;;;;4972644;28;20046;-76
2024/03/16 11:13:20;;;;;;;23.27;13.40;;;13.50;99.90;;;;;;4943935;28;20059;-76
2024/03/16 11:15:48;;;;;;;23.50;13.15;;;13.70;99.90;;;;;;4944349;28;20035;-77
2024/03/16 11:18:52;;;;;;;22.20;13.00;;;13.70;99.90;;;;;;4954419;28;20405;-78
2024/03/16 11:21:23;;;;;;;24.23;13.13;;;13.80;99.90;;;;;;4952039;28;20098;-78
2024/03/16 11:23:49;;;;;;;20.20;11.07;;;13.90;99.90;;;;;;4958984;28;20045;-77
2024/03/16 11:26:36;;;;;;;21.17;11.90;;;14.00;99.90;;;;;;4950528;28;20050;-76
2024/03/16 11:29:04;;;;;;;25.23;13.32;;;14.10;99.90;;;;;;4960350;28;20042;-76
2024/03/16 11:31:36;;;;;;;24.50;13.50;;;14.10;99.90;;;;;;4938761;28;20039;-78
2024/03/16 11:34:04;;;;;;;24.38;12.85;;;14.40;99.90;;;;;;4980179;28;20089;-77
2024/03/16 11:36:35;;;;;;;23.40;13.27;;;14.40;99.90;;;;;;4957982;28;20432;-77
2024/03/16 11:39:10;;;;;;;25.48;14.23;;;14.40;99.90;;;;;;4939516;28;20042;-77
2024/03/16 11:41:44;;;;;;;19.08;11.20;;;14.60;99.90;;;;;;4939628;28;20056;-77
2024/03/16 11:44:14;;;;;;;24.33;12.93;;;14.70;99.90;;;;;;4951741;28;20050;-77
2024/03/16 11:46:44;;;;;;;23.92;12.45;;;14.60;99.90;;;;;;4968832;28;20053;-77
2024/03/16 11:49:11;;;;;;;25.23;13.65;;;14.60;99.90;;;;;;4952145;28;20063;-78
2024/03/16 11:51:39;;;;;;;25.45;13.20;;;14.40;99.90;;;;;;4959603;28;20497;-77
2024/03/16 11:54:08;;;;;;;25.38;14.98;;;14.50;99.90;;;;;;4969373;28;20049;-77
2024/03/16 11:56:36;;;;;;;25.30;13.30;;;14.70;99.90;;;;;;4973939;28;20050;-77
2024/03/16 11:59:04;;;;;;;22.55;13.07;;;14.70;99.90;;;;;;4938049;28;20042;-78
2024/03/16 12:01:32;;;;;;;23.48;13.50;;;14.80;99.90;;;;;;4954959;28;20074;-78
2024/03/16 12:03:59;;;;;;;25.27;13.95;;;14.70;99.90;;;;;;4939315;28;20026;-78
2024/03/16 12:06:27;;;;;;;25.10;13.95;;;14.60;99.90;;;;;;4955490;28;20137;-78
2024/03/16 12:08:54;;;;;;;28.58;15.43;;;14.60;99.90;;;;;;4945879;28;20051;-75
2024/03/16 12:11:22;;;;;;;26.58;14.63;;;14.70;99.90;;;;;;4918545;28;20039;-76
2024/03/16 12:13:51;;;;;;;27.58;16.00;;;14.70;99.90;;;;;;4920487;28;20415;-76
2024/03/16 12:16:18;;;;;;;26.95;15.15;;;14.60;99.90;;;;;;4946546;28;20053;-75
2024/03/16 12:18:45;;;;;;;29.30;16.50;;;14.50;99.90;;;;;;4915253;28;20126;-76
2024/03/16 12:21:12;;;;;;;24.98;13.20;;;14.60;99.90;;;;;;4920492;28;20093;-76
2024/03/16 12:23:40;;;;;;;28.80;15.55;;;14.40;99.90;;;;;;4922445;28;20094;-76
2024/03/16 12:26:09;;;;;;;29.60;15.95;;;14.40;99.90;;;;;;4962301;28;20043;-76
2024/03/16 12:28:38;;;;;;;27.70;16.65;;;14.60;99.90;;;;;;4917269;28;20046;-77
2024/03/16 12:31:04;;;;;;;30.58;15.73;;;14.60;99.90;;;;;;4942577;28;20043;-77
2024/03/16 12:33:33;;;;;;;27.73;15.77;;;14.50;99.90;;;;;;4917564;28;20493;-77
2024/03/16 12:36:00;;;;;;;26.58;15.55;;;14.50;99.90;;;;;;4936142;28;20126;-75
2024/03/16 12:38:28;;;;;;;25.15;14.50;;;14.60;99.90;;;;;;4917168;28;20054;-75
2024/03/16 12:40:55;;;;;;;26.02;14.35;;;14.70;99.90;;;;;;4918588;28;20505;-75
2024/03/16 12:43:22;;;;;;;23.58;13.88;;;14.60;99.90;;;;;;4922104;28;20054;-76